sensor_id;sensor_type;location;lat;lon;timestamp;pressure;altitude;pressure_sealevel;temperature;humidity
6615;BME280;3343;42.896;23.912;2023-02-04T00:00:09;96254.03;;;6.35;79.00
6615;BME280;3343;42.896;23.912;2023-02-04T00:02:38;96246.84;;;6.37;77.80
6615;BME280;3343;42.896;23.912;2023-02-04T00:05:06;96241.69;;;6.60;77.33
6615;BME280;3343;42.896;23.912;2023-02-04T00:07:33;96246.13;;;6.60;77.21
6615;BME280;3343;42.896;23.912;2023-02-04T00:10:00;96242.19;;;6.17;79.33
6615;BME280;3343;42.896;23.912;2023-02-04T00:12:29;96231.69;;;6.33;78.75
6615;BME280;3343;42.896;23.912;2023-02-04T00:14:56;96237.44;;;6.20;78.80
6615;BME280;3343;42.896;23.912;2023-02-04T00:17:22;96224.25;;;6.53;77.00
6615;BME280;3343;42.896;23.912;2023-02-04T00:19:49;96211.66;;;6.56;76.14
6615;BME280;3343;42.896;23.912;2023-02-04T00:22:16;96218.13;;;6.68;75.61
6615;BME280;3343;42.896;23.912;2023-02-04T00:24:43;96217.19;;;6.22;76.59
6615;BME280;3343;42.896;23.912;2023-02-04T00:27:14;96219.28;;;6.66;74.93
6615;BME280;3343;42.896;23.912;2023-02-04T00:29:42;96215.75;;;6.51;75.96
6615;BME280;3343;42.896;23.912;2023-02-04T00:32:09;96208.53;;;6.14;77.04
6615;BME280;3343;42.896;23.912;2023-02-04T00:34:36;96202.66;;;6.59;75.35
6615;BME280;3343;42.896;23.912;2023-02-04T00:37:03;96206.22;;;6.27;76.33
6615;BME280;3343;42.896;23.912;2023-02-04T00:39:30;96192.22;;;6.51;75.27
6615;BME280;3343;42.896;23.912;2023-02-04T00:41:57;96196.94;;;6.16;76.43
6615;BME280;3343;42.896;23.912;2023-02-04T00:44:23;96189.63;;;6.12;77.39
6615;BME280;3343;42.896;23.912;2023-02-04T00:46:52;96184.63;;;6.33;76.86
6615;BME280;3343;42.896;23.912;2023-02-04T00:49:18;96173.13;;;6.03;77.59
6615;BME280;3343;42.896;23.912;2023-02-04T00:51:45;96173.97;;;5.79;78.65
6615;BME280;3343;42.896;23.912;2023-02-04T00:54:12;96165.31;;;5.87;78.56
6615;BME280;3343;42.896;23.912;2023-02-04T00:56:40;96164.25;;;6.28;75.48
6615;BME280;3343;42.896;23.912;2023-02-04T00:59:07;96155.38;;;6.68;74.28
6615;BME280;3343;42.896;23.912;2023-02-04T01:01:34;96152.38;;;6.80;73.47
6615;BME280;3343;42.896;23.912;2023-02-04T01:04:03;96156.34;;;6.98;73.21
6615;BME280;3343;42.896;23.912;2023-02-04T01:06:30;96143.94;;;6.38;76.06
6615;BME280;3343;42.896;23.912;2023-02-04T01:08:56;96143.94;;;6.38;75.49
6615;BME280;3343;42.896;23.912;2023-02-04T01:11:23;96137.13;;;6.29;76.57
6615;BME280;3343;42.896;23.912;2023-02-04T01:13:50;96139.13;;;6.19;77.10
6615;BME280;3343;42.896;23.912;2023-02-04T01:16:17;96132.97;;;5.88;78.74
6615;BME280;3343;42.896;23.912;2023-02-04T01:18:44;96132.91;;;6.20;77.11
6615;BME280;3343;42.896;23.912;2023-02-04T01:21:13;96123.94;;;6.77;74.92
6615;BME280;3343;42.896;23.912;2023-02-04T01:23:39;96123.44;;;6.81;73.99
6615;BME280;3343;42.896;23.912;2023-02-04T01:26:06;96108.47;;;6.98;72.68
6615;BME280;3343;42.896;23.912;2023-02-04T01:28:33;96110.91;;;6.99;72.86
6615;BME280;3343;42.896;23.912;2023-02-04T01:31:00;96119.72;;;7.21;72.52
6615;BME280;3343;42.896;23.912;2023-02-04T01:33:26;96116.13;;;6.46;76.36
6615;BME280;3343;42.896;23.912;2023-02-04T01:35:53;96108.16;;;6.39;77.33
6615;BME280;3343;42.896;23.912;2023-02-04T01:38:21;96105.13;;;6.81;75.86
6615;BME280;3343;42.896;23.912;2023-02-04T01:40:48;96113.50;;;6.15;78.00
6615;BME280;3343;42.896;23.912;2023-02-04T01:43:15;96105.72;;;6.37;76.28
6615;BME280;3343;42.896;23.912;2023-02-04T01:45:43;96096.81;;;6.78;74.52
6615;BME280;3343;42.896;23.912;2023-02-04T01:48:10;96096.59;;;7.10;72.25
6615;BME280;3343;42.896;23.912;2023-02-04T01:50:37;96099.25;;;7.40;70.51
6615;BME280;3343;42.896;23.912;2023-02-04T01:53:04;96100.44;;;7.52;69.60
6615;BME280;3343;42.896;23.912;2023-02-04T01:55:33;96094.22;;;7.53;69.55
6615;BME280;3343;42.896;23.912;2023-02-04T01:58:00;96083.94;;;7.51;68.95
6615;BME280;3343;42.896;23.912;2023-02-04T02:00:30;96097.75;;;7.60;68.42
6615;BME280;3343;42.896;23.912;2023-02-04T02:02:58;96084.66;;;7.75;67.66
6615;BME280;3343;42.896;23.912;2023-02-04T02:05:27;96089.19;;;7.81;68.31
6615;BME280;3343;42.896;23.912;2023-02-04T02:07:59;96086.84;;;7.86;67.96
6615;BME280;3343;42.896;23.912;2023-02-04T02:10:28;96087.47;;;7.88;67.25
6615;BME280;3343;42.896;23.912;2023-02-04T02:12:56;96078.25;;;8.07;66.19
6615;BME280;3343;42.896;23.912;2023-02-04T02:15:24;96083.41;;;8.00;65.50
6615;BME280;3343;42.896;23.912;2023-02-04T02:17:52;96076.16;;;7.43;65.73
6615;BME280;3343;42.896;23.912;2023-02-04T02:20:21;96082.22;;;7.58;64.88
6615;BME280;3343;42.896;23.912;2023-02-04T02:22:57;96067.78;;;7.92;63.86
6615;BME280;3343;42.896;23.912;2023-02-04T02:25:28;96063.34;;;8.07;63.77
6615;BME280;3343;42.896;23.912;2023-02-04T02:27:56;96059.59;;;8.31;63.13
6615;BME280;3343;42.896;23.912;2023-02-04T02:30:24;96067.19;;;8.26;62.67
6615;BME280;3343;42.896;23.912;2023-02-04T02:32:53;96067.47;;;8.16;62.03
6615;BME280;3343;42.896;23.912;2023-02-04T02:35:20;96061.09;;;8.04;61.21
6615;BME280;3343;42.896;23.912;2023-02-04T02:37:47;96062.03;;;8.32;60.33
6615;BME280;3343;42.896;23.912;2023-02-04T02:40:14;96064.00;;;8.30;60.00
6615;BME280;3343;42.896;23.912;2023-02-04T02:42:43;96060.69;;;8.73;58.10
6615;BME280;3343;42.896;23.912;2023-02-04T02:45:17;96053.03;;;8.99;57.02
6615;BME280;3343;42.896;23.912;2023-02-04T02:47:45;96052.50;;;8.82;57.42
6615;BME280;3343;42.896;23.912;2023-02-04T02:50:15;96054.88;;;8.77;57.87
6615;BME280;3343;42.896;23.912;2023-02-04T02:52:45;96045.19;;;8.78;58.46
6615;BME280;3343;42.896;23.912;2023-02-04T02:55:14;96034.13;;;8.82;58.55
6615;BME280;3343;42.896;23.912;2023-02-04T02:57:43;96034.22;;;8.53;60.03
6615;BME280;3343;42.896;23.912;2023-02-04T03:00:15;96036.09;;;8.59;60.99
6615;BME280;3343;42.896;23.912;2023-02-04T03:02:44;96023.59;;;8.61;60.72
6615;BME280;3343;42.896;23.912;2023-02-04T03:05:11;96035.25;;;8.73;60.50
6615;BME280;3343;42.896;23.912;2023-02-04T03:07:39;96035.69;;;8.77;59.70
6615;BME280;3343;42.896;23.912;2023-02-04T03:10:06;96029.75;;;8.68;59.85
6615;BME280;3343;42.896;23.912;2023-02-04T03:12:33;96029.38;;;8.71;60.11
6615;BME280;3343;42.896;23.912;2023-02-04T03:15:01;96021.00;;;8.82;59.93
6615;BME280;3343;42.896;23.912;2023-02-04T03:17:29;96013.56;;;8.65;60.29
6615;BME280;3343;42.896;23.912;2023-02-04T03:19:56;96017.47;;;8.69;60.44
6615;BME280;3343;42.896;23.912;2023-02-04T03:22:23;96011.47;;;8.75;60.73
6615;BME280;3343;42.896;23.912;2023-02-04T03:24:50;96021.19;;;8.59;61.33
6615;BME280;3343;42.896;23.912;2023-02-04T03:27:18;96018.56;;;8.59;61.60
6615;BME280;3343;42.896;23.912;2023-02-04T03:29:45;96013.44;;;8.51;61.69
6615;BME280;3343;42.896;23.912;2023-02-04T03:32:13;96009.88;;;8.59;61.46
6615;BME280;3343;42.896;23.912;2023-02-04T03:34:40;95999.00;;;8.41;61.06
6615;BME280;3343;42.896;23.912;2023-02-04T03:37:07;95989.03;;;8.51;60.76
6615;BME280;3343;42.896;23.912;2023-02-04T03:39:34;95993.81;;;8.47;61.23
6615;BME280;3343;42.896;23.912;2023-02-04T03:42:00;96003.44;;;8.61;60.46
6615;BME280;3343;42.896;23.912;2023-02-04T03:44:27;96000.63;;;8.42;61.04
6615;BME280;3343;42.896;23.912;2023-02-04T03:46:55;95991.94;;;8.62;61.20
6615;BME280;3343;42.896;23.912;2023-02-04T03:49:25;95986.66;;;8.56;60.47
6615;BME280;3343;42.896;23.912;2023-02-04T03:51:52;95994.75;;;8.61;60.52
6615;BME280;3343;42.896;23.912;2023-02-04T03:54:19;95986.72;;;8.41;60.71
6615;BME280;3343;42.896;23.912;2023-02-04T03:56:46;95982.53;;;8.47;60.45
6615;BME280;3343;42.896;23.912;2023-02-04T03:59:13;95983.09;;;8.42;60.49
6615;BME280;3343;42.896;23.912;2023-02-04T04:01:40;95976.69;;;8.09;63.17
6615;BME280;3343;42.896;23.912;2023-02-04T04:04:07;95966.25;;;8.15;62.94
6615;BME280;3343;42.896;23.912;2023-02-04T04:06:35;95973.13;;;8.16;64.13
6615;BME280;3343;42.896;23.912;2023-02-04T04:09:02;95967.72;;;7.67;66.59
6615;BME280;3343;42.896;23.912;2023-02-04T04:11:29;95953.50;;;7.91;64.59
6615;BME280;3343;42.896;23.912;2023-02-04T04:13:56;95966.34;;;7.71;65.96
6615;BME280;3343;42.896;23.912;2023-02-04T04:16:23;95976.00;;;7.71;66.32
6615;BME280;3343;42.896;23.912;2023-02-04T04:18:50;95971.25;;;7.45;68.24
6615;BME280;3343;42.896;23.912;2023-02-04T04:21:16;95957.81;;;7.48;68.42
6615;BME280;3343;42.896;23.912;2023-02-04T04:23:45;95959.09;;;7.22;69.03
6615;BME280;3343;42.896;23.912;2023-02-04T04:26:11;95953.84;;;7.22;69.06
6615;BME280;3343;42.896;23.912;2023-02-04T04:28:38;95947.00;;;7.36;68.21
6615;BME280;3343;42.896;23.912;2023-02-04T04:31:05;95942.41;;;7.09;69.18
6615;BME280;3343;42.896;23.912;2023-02-04T04:33:32;95941.84;;;7.13;69.36
6615;BME280;3343;42.896;23.912;2023-02-04T04:35:59;95948.94;;;7.63;67.10
6615;BME280;3343;42.896;23.912;2023-02-04T04:38:26;95938.00;;;7.75;67.55
6615;BME280;3343;42.896;23.912;2023-02-04T04:40:54;95934.25;;;7.98;66.87
6615;BME280;3343;42.896;23.912;2023-02-04T04:43:20;95941.06;;;7.78;67.71
6615;BME280;3343;42.896;23.912;2023-02-04T04:45:47;95943.47;;;7.94;67.32
6615;BME280;3343;42.896;23.912;2023-02-04T04:48:14;95939.81;;;8.10;66.74
6615;BME280;3343;42.896;23.912;2023-02-04T04:50:41;95939.25;;;8.15;67.29
6615;BME280;3343;42.896;23.912;2023-02-04T04:53:08;95946.72;;;8.18;67.18
6615;BME280;3343;42.896;23.912;2023-02-04T04:55:35;95935.31;;;8.04;68.05
6615;BME280;3343;42.896;23.912;2023-02-04T04:58:04;95948.41;;;8.25;68.09
6615;BME280;3343;42.896;23.912;2023-02-04T05:00:32;95949.53;;;7.95;68.42
6615;BME280;3343;42.896;23.912;2023-02-04T05:02:59;95955.34;;;8.12;68.14
6615;BME280;3343;42.896;23.912;2023-02-04T05:05:26;95953.22;;;8.22;67.72
6615;BME280;3343;42.896;23.912;2023-02-04T05:07:53;95957.16;;;8.11;67.48
6615;BME280;3343;42.896;23.912;2023-02-04T05:10:19;95960.34;;;8.28;67.88
6615;BME280;3343;42.896;23.912;2023-02-04T05:12:46;95965.56;;;8.07;68.21
6615;BME280;3343;42.896;23.912;2023-02-04T05:15:15;95962.19;;;7.77;70.99
6615;BME280;3343;42.896;23.912;2023-02-04T05:17:41;95969.41;;;7.75;69.74
6615;BME280;3343;42.896;23.912;2023-02-04T05:20:09;95958.00;;;7.97;69.28
6615;BME280;3343;42.896;23.912;2023-02-04T05:22:36;95954.75;;;7.95;68.95
6615;BME280;3343;42.896;23.912;2023-02-04T05:25:03;95956.53;;;8.30;67.25
6615;BME280;3343;42.896;23.912;2023-02-04T05:27:30;95965.53;;;8.21;67.80
6615;BME280;3343;42.896;23.912;2023-02-04T05:29:57;95970.34;;;8.39;67.51
6615;BME280;3343;42.896;23.912;2023-02-04T05:32:25;95971.66;;;8.50;68.85
6615;BME280;3343;42.896;23.912;2023-02-04T05:34:52;95971.19;;;8.25;68.81
6615;BME280;3343;42.896;23.912;2023-02-04T05:37:19;95965.31;;;8.38;68.55
6615;BME280;3343;42.896;23.912;2023-02-04T05:39:46;95978.78;;;8.35;69.10
6615;BME280;3343;42.896;23.912;2023-02-04T05:42:13;95964.19;;;8.11;68.84
6615;BME280;3343;42.896;23.912;2023-02-04T05:44:39;95963.94;;;8.42;67.58
6615;BME280;3343;42.896;23.912;2023-02-04T05:47:06;95971.16;;;8.40;66.97
6615;BME280;3343;42.896;23.912;2023-02-04T05:49:35;95963.38;;;8.46;66.04
6615;BME280;3343;42.896;23.912;2023-02-04T05:52:02;95965.41;;;8.51;65.05
6615;BME280;3343;42.896;23.912;2023-02-04T05:54:29;95966.88;;;8.75;64.09
6615;BME280;3343;42.896;23.912;2023-02-04T05:56:56;95972.78;;;8.62;63.96
6615;BME280;3343;42.896;23.912;2023-02-04T05:59:23;95965.81;;;8.69;63.44
6615;BME280;3343;42.896;23.912;2023-02-04T06:01:50;95962.41;;;8.54;63.91
6615;BME280;3343;42.896;23.912;2023-02-04T06:04:16;95965.91;;;8.61;62.70
6615;BME280;3343;42.896;23.912;2023-02-04T06:06:45;95965.16;;;8.46;63.20
6615;BME280;3343;42.896;23.912;2023-02-04T06:09:12;95965.84;;;8.54;62.39
6615;BME280;3343;42.896;23.912;2023-02-04T06:11:38;95974.28;;;8.50;61.46
6615;BME280;3343;42.896;23.912;2023-02-04T06:14:05;95971.91;;;8.55;61.70
6615;BME280;3343;42.896;23.912;2023-02-04T06:16:32;95967.66;;;8.75;60.28
6615;BME280;3343;42.896;23.912;2023-02-04T06:18:59;95974.91;;;8.73;59.08
6615;BME280;3343;42.896;23.912;2023-02-04T06:21:26;95975.34;;;8.55;59.54
6615;BME280;3343;42.896;23.912;2023-02-04T06:23:55;95973.59;;;8.84;58.56
6615;BME280;3343;42.896;23.912;2023-02-04T06:26:21;95963.81;;;8.99;58.00
6615;BME280;3343;42.896;23.912;2023-02-04T06:28:48;95955.97;;;9.06;56.68
6615;BME280;3343;42.896;23.912;2023-02-04T06:31:15;95960.19;;;9.00;55.83
6615;BME280;3343;42.896;23.912;2023-02-04T06:33:42;95963.41;;;9.30;55.97
6615;BME280;3343;42.896;23.912;2023-02-04T06:36:08;95964.88;;;9.39;55.46
6615;BME280;3343;42.896;23.912;2023-02-04T06:38:35;95957.41;;;9.43;56.08
6615;BME280;3343;42.896;23.912;2023-02-04T06:41:04;95964.66;;;9.75;55.95
6615;BME280;3343;42.896;23.912;2023-02-04T06:43:31;95971.53;;;9.42;57.74
6615;BME280;3343;42.896;23.912;2023-02-04T06:45:58;95964.38;;;9.57;55.36
6615;BME280;3343;42.896;23.912;2023-02-04T06:48:24;95963.75;;;9.55;53.27
6615;BME280;3343;42.896;23.912;2023-02-04T06:50:51;95971.28;;;9.65;53.29
6615;BME280;3343;42.896;23.912;2023-02-04T06:53:18;95970.56;;;9.49;53.32
6615;BME280;3343;42.896;23.912;2023-02-04T06:55:45;95979.94;;;9.58;52.54
6615;BME280;3343;42.896;23.912;2023-02-04T06:58:13;95975.97;;;9.76;52.39
6615;BME280;3343;42.896;23.912;2023-02-04T07:00:40;95975.25;;;9.95;51.61
6615;BME280;3343;42.896;23.912;2023-02-04T07:03:07;95976.56;;;9.71;52.17
6615;BME280;3343;42.896;23.912;2023-02-04T07:05:34;95977.44;;;9.85;51.71
6615;BME280;3343;42.896;23.912;2023-02-04T07:08:00;95980.25;;;9.83;51.76
6615;BME280;3343;42.896;23.912;2023-02-04T07:10:27;95987.00;;;10.06;51.49
6615;BME280;3343;42.896;23.912;2023-02-04T07:12:54;95974.28;;;10.16;51.20
6615;BME280;3343;42.896;23.912;2023-02-04T07:15:23;95973.75;;;10.34;49.97
6615;BME280;3343;42.896;23.912;2023-02-04T07:17:50;95968.50;;;9.73;48.91
6615;BME280;3343;42.896;23.912;2023-02-04T07:20:18;95969.41;;;10.00;49.00
6615;BME280;3343;42.896;23.912;2023-02-04T07:22:44;95974.06;;;10.04;48.74
6615;BME280;3343;42.896;23.912;2023-02-04T07:25:11;95969.69;;;10.25;49.56
6615;BME280;3343;42.896;23.912;2023-02-04T07:27:39;95969.38;;;10.67;48.77
6615;BME280;3343;42.896;23.912;2023-02-04T07:30:08;95953.59;;;10.80;47.17
6615;BME280;3343;42.896;23.912;2023-02-04T07:32:36;95953.91;;;11.50;45.85
6615;BME280;3343;42.896;23.912;2023-02-04T07:35:04;95968.09;;;12.07;43.98
6615;BME280;3343;42.896;23.912;2023-02-04T07:37:31;95952.94;;;12.40;41.22
6615;BME280;3343;42.896;23.912;2023-02-04T07:39:58;95950.19;;;12.54;40.50
6615;BME280;3343;42.896;23.912;2023-02-04T07:42:25;95935.38;;;12.21;40.78
6615;BME280;3343;42.896;23.912;2023-02-04T07:44:51;95944.38;;;12.07;41.77
6615;BME280;3343;42.896;23.912;2023-02-04T07:47:20;95943.22;;;11.96;42.61
6615;BME280;3343;42.896;23.912;2023-02-04T07:49:48;95930.47;;;11.02;42.88
6615;BME280;3343;42.896;23.912;2023-02-04T07:52:15;95932.91;;;11.04;44.24
6615;BME280;3343;42.896;23.912;2023-02-04T07:54:42;95936.56;;;11.87;42.53
6615;BME280;3343;42.896;23.912;2023-02-04T07:57:09;95922.63;;;12.11;41.54
6615;BME280;3343;42.896;23.912;2023-02-04T07:59:36;95927.44;;;12.28;40.85
6615;BME280;3343;42.896;23.912;2023-02-04T08:02:02;95931.09;;;12.58;40.54
6615;BME280;3343;42.896;23.912;2023-02-04T08:04:30;95923.84;;;12.97;39.04
6615;BME280;3343;42.896;23.912;2023-02-04T08:06:58;95929.25;;;13.88;37.24
6615;BME280;3343;42.896;23.912;2023-02-04T08:09:24;95929.34;;;14.12;36.00
6615;BME280;3343;42.896;23.912;2023-02-04T08:11:52;95927.16;;;14.80;36.16
6615;BME280;3343;42.896;23.912;2023-02-04T08:14:19;95934.66;;;14.95;36.13
6615;BME280;3343;42.896;23.912;2023-02-04T08:16:46;95932.25;;;15.17;35.30
6615;BME280;3343;42.896;23.912;2023-02-04T08:19:12;95939.59;;;14.80;33.72
6615;BME280;3343;42.896;23.912;2023-02-04T08:21:43;95933.88;;;15.18;33.98
6615;BME280;3343;42.896;23.912;2023-02-04T08:24:12;95927.63;;;15.12;34.00
6615;BME280;3343;42.896;23.912;2023-02-04T08:26:39;95932.81;;;15.19;33.98
6615;BME280;3343;42.896;23.912;2023-02-04T08:29:06;95938.91;;;15.43;33.25
6615;BME280;3343;42.896;23.912;2023-02-04T08:31:34;95937.19;;;15.48;34.27
6615;BME280;3343;42.896;23.912;2023-02-04T08:34:02;95929.84;;;15.62;34.48
6615;BME280;3343;42.896;23.912;2023-02-04T08:36:29;95932.47;;;15.39;35.07
6615;BME280;3343;42.896;23.912;2023-02-04T08:38:56;95929.69;;;15.57;33.83
6615;BME280;3343;42.896;23.912;2023-02-04T08:41:24;95925.41;;;15.56;33.49
6615;BME280;3343;42.896;23.912;2023-02-04T08:43:51;95927.28;;;14.97;34.24
6615;BME280;3343;42.896;23.912;2023-02-04T08:46:18;95918.00;;;14.23;34.47
6615;BME280;3343;42.896;23.912;2023-02-04T08:48:45;95927.13;;;14.39;35.84
6615;BME280;3343;42.896;23.912;2023-02-04T08:51:12;95914.06;;;14.14;35.92
6615;BME280;3343;42.896;23.912;2023-02-04T08:53:39;95915.97;;;14.07;37.44
6615;BME280;3343;42.896;23.912;2023-02-04T08:56:06;95916.03;;;13.88;36.56
6615;BME280;3343;42.896;23.912;2023-02-04T08:58:35;95917.50;;;14.14;36.34
6615;BME280;3343;42.896;23.912;2023-02-04T09:01:02;95913.28;;;13.77;37.16
6615;BME280;3343;42.896;23.912;2023-02-04T09:03:28;95916.53;;;13.42;37.71
6615;BME280;3343;42.896;23.912;2023-02-04T09:05:55;95911.81;;;13.81;37.00
6615;BME280;3343;42.896;23.912;2023-02-04T09:08:22;95910.59;;;14.13;36.76
6615;BME280;3343;42.896;23.912;2023-02-04T09:10:49;95916.94;;;14.42;36.44
6615;BME280;3343;42.896;23.912;2023-02-04T09:13:16;95918.56;;;14.25;36.64
6615;BME280;3343;42.896;23.912;2023-02-04T09:15:44;95920.38;;;14.13;37.21
6615;BME280;3343;42.896;23.912;2023-02-04T09:18:11;95907.16;;;13.46;37.30
6615;BME280;3343;42.896;23.912;2023-02-04T09:20:41;95912.16;;;13.11;38.42
6615;BME280;3343;42.896;23.912;2023-02-04T09:23:08;95919.78;;;12.76;39.98
6615;BME280;3343;42.896;23.912;2023-02-04T09:25:37;95921.59;;;12.19;39.91
6615;BME280;3343;42.896;23.912;2023-02-04T09:28:04;95916.97;;;12.08;40.52
6615;BME280;3343;42.896;23.912;2023-02-04T09:30:34;95919.00;;;12.44;40.94
6615;BME280;3343;42.896;23.912;2023-02-04T09:33:02;95913.19;;;12.35;39.97
6615;BME280;3343;42.896;23.912;2023-02-04T09:35:29;95913.72;;;12.94;39.60
6615;BME280;3343;42.896;23.912;2023-02-04T09:37:56;95911.50;;;12.91;40.32
6615;BME280;3343;42.896;23.912;2023-02-04T09:40:25;95914.50;;;13.44;39.12
6615;BME280;3343;42.896;23.912;2023-02-04T09:42:53;95914.22;;;13.09;40.36
6615;BME280;3343;42.896;23.912;2023-02-04T09:45:23;95912.69;;;12.95;40.55
6615;BME280;3343;42.896;23.912;2023-02-04T09:47:53;95919.06;;;12.62;41.15
6615;BME280;3343;42.896;23.912;2023-02-04T09:50:24;95909.94;;;11.95;41.50
6615;BME280;3343;42.896;23.912;2023-02-04T09:52:53;95919.25;;;11.46;44.44
6615;BME280;3343;42.896;23.912;2023-02-04T09:55:26;95924.44;;;11.66;44.40
6615;BME280;3343;42.896;23.912;2023-02-04T09:57:54;95923.81;;;11.71;45.78
6615;BME280;3343;42.896;23.912;2023-02-04T10:00:23;95931.22;;;11.49;46.90
6615;BME280;3343;42.896;23.912;2023-02-04T10:02:50;95936.72;;;11.21;50.68
6615;BME280;3343;42.896;23.912;2023-02-04T10:05:19;95932.31;;;10.89;52.09
6615;BME280;3343;42.896;23.912;2023-02-04T10:07:50;95927.03;;;10.95;53.61
6615;BME280;3343;42.896;23.912;2023-02-04T10:10:19;95928.41;;;11.37;53.42
6615;BME280;3343;42.896;23.912;2023-02-04T10:12:51;95927.22;;;11.07;51.10
6615;BME280;3343;42.896;23.912;2023-02-04T10:15:19;95917.94;;;10.98;51.13
6615;BME280;3343;42.896;23.912;2023-02-04T10:17:48;95925.84;;;10.84;55.39
6615;BME280;3343;42.896;23.912;2023-02-04T10:20:18;95923.19;;;11.04;56.50
6615;BME280;3343;42.896;23.912;2023-02-04T10:22:45;95921.41;;;10.65;59.96
6615;BME280;3343;42.896;23.912;2023-02-04T10:25:16;95904.59;;;10.79;60.35
6615;BME280;3343;42.896;23.912;2023-02-04T10:27:47;95920.16;;;10.94;61.05
6615;BME280;3343;42.896;23.912;2023-02-04T10:30:20;95922.38;;;11.04;59.47
6615;BME280;3343;42.896;23.912;2023-02-04T10:32:47;95915.69;;;11.08;59.20
6615;BME280;3343;42.896;23.912;2023-02-04T10:35:16;95921.09;;;11.26;58.16
6615;BME280;3343;42.896;23.912;2023-02-04T10:37:43;95923.16;;;11.24;58.79
6615;BME280;3343;42.896;23.912;2023-02-04T10:40:29;95932.00;;;11.49;57.34
6615;BME280;3343;42.896;23.912;2023-02-04T10:42:56;95924.34;;;11.41;59.66
6615;BME280;3343;42.896;23.912;2023-02-04T10:45:25;95923.94;;;11.25;58.94
6615;BME280;3343;42.896;23.912;2023-02-04T10:47:54;95935.06;;;11.46;57.63
6615;BME280;3343;42.896;23.912;2023-02-04T10:50:23;95931.09;;;11.04;57.62
6615;BME280;3343;42.896;23.912;2023-02-04T10:52:51;95928.84;;;11.14;60.08
6615;BME280;3343;42.896;23.912;2023-02-04T10:55:22;95930.84;;;11.26;60.69
6615;BME280;3343;42.896;23.912;2023-02-04T10:57:51;95930.47;;;11.15;62.78
6615;BME280;3343;42.896;23.912;2023-02-04T11:00:20;95923.59;;;11.01;63.87
6615;BME280;3343;42.896;23.912;2023-02-04T11:02:53;95927.84;;;10.96;63.29
6615;BME280;3343;42.896;23.912;2023-02-04T11:05:25;95930.09;;;10.85;64.57
6615;BME280;3343;42.896;23.912;2023-02-04T11:07:55;95927.06;;;10.42;66.44
6615;BME280;3343;42.896;23.912;2023-02-04T11:10:23;95933.34;;;10.41;68.22
6615;BME280;3343;42.896;23.912;2023-02-04T11:13:03;95935.31;;;10.26;71.69
6615;BME280;3343;42.896;23.912;2023-02-04T11:15:40;95938.09;;;10.11;73.55
6615;BME280;3343;42.896;23.912;2023-02-04T11:18:09;95936.84;;;10.01;74.11
6615;BME280;3343;42.896;23.912;2023-02-04T11:20:37;95932.59;;;10.06;74.09
6615;BME280;3343;42.896;23.912;2023-02-04T11:23:31;95927.56;;;10.11;75.32
6615;BME280;3343;42.896;23.912;2023-02-04T11:26:07;95936.72;;;10.22;75.15
6615;BME280;3343;42.896;23.912;2023-02-04T11:28:46;95920.53;;;10.25;76.35
6615;BME280;3343;42.896;23.912;2023-02-04T11:31:25;95925.16;;;10.16;76.41
6615;BME280;3343;42.896;23.912;2023-02-04T11:34:06;95929.03;;;10.34;77.31
6615;BME280;3343;42.896;23.912;2023-02-04T11:36:34;95917.84;;;10.12;77.40
6615;BME280;3343;42.896;23.912;2023-02-04T11:39:10;95917.31;;;10.36;76.67
6615;BME280;3343;42.896;23.912;2023-02-04T11:41:43;95920.19;;;10.55;75.90
6615;BME280;3343;42.896;23.912;2023-02-04T11:44:12;95919.78;;;10.51;76.33
6615;BME280;3343;42.896;23.912;2023-02-04T11:46:40;95918.34;;;10.42;75.66
6615;BME280;3343;42.896;23.912;2023-02-04T11:49:13;95919.16;;;10.69;76.05
6615;BME280;3343;42.896;23.912;2023-02-04T11:51:42;95914.13;;;10.61;72.84
6615;BME280;3343;42.896;23.912;2023-02-04T11:54:11;95911.44;;;10.21;71.71
6615;BME280;3343;42.896;23.912;2023-02-04T11:56:39;95905.00;;;10.63;74.06
6615;BME280;3343;42.896;23.912;2023-02-04T11:59:08;95903.16;;;10.97;72.89
6615;BME280;3343;42.896;23.912;2023-02-04T12:01:38;95901.72;;;11.01;71.95
6615;BME280;3343;42.896;23.912;2023-02-04T12:04:07;95898.09;;;10.95;72.86
6615;BME280;3343;42.896;23.912;2023-02-04T12:06:56;95897.28;;;10.88;72.91
6615;BME280;3343;42.896;23.912;2023-02-04T12:09:24;95891.81;;;10.90;73.20
6615;BME280;3343;42.896;23.912;2023-02-04T12:11:54;95894.22;;;11.04;70.36
6615;BME280;3343;42.896;23.912;2023-02-04T12:14:27;95884.72;;;11.03;70.56
6615;BME280;3343;42.896;23.912;2023-02-04T12:16:56;95882.28;;;11.02;70.43
6615;BME280;3343;42.896;23.912;2023-02-04T12:19:23;95885.28;;;11.12;70.98
6615;BME280;3343;42.896;23.912;2023-02-04T12:21:50;95877.75;;;11.22;70.41
6615;BME280;3343;42.896;23.912;2023-02-04T12:24:17;95882.09;;;10.97;66.99
6615;BME280;3343;42.896;23.912;2023-02-04T12:26:44;95873.59;;;10.95;69.65
6615;BME280;3343;42.896;23.912;2023-02-04T12:29:11;95880.09;;;10.79;71.47
6615;BME280;3343;42.896;23.912;2023-02-04T12:31:38;95879.69;;;10.69;73.19
6615;BME280;3343;42.896;23.912;2023-02-04T12:34:06;95873.19;;;10.84;74.43
6615;BME280;3343;42.896;23.912;2023-02-04T12:36:33;95885.78;;;10.69;74.60
6615;BME280;3343;42.896;23.912;2023-02-04T12:39:00;95880.63;;;10.02;74.00
6615;BME280;3343;42.896;23.912;2023-02-04T12:41:27;95881.03;;;10.05;76.14
6615;BME280;3343;42.896;23.912;2023-02-04T12:43:54;95893.19;;;10.06;76.87
6615;BME280;3343;42.896;23.912;2023-02-04T12:46:21;95895.56;;;9.81;78.95
6615;BME280;3343;42.896;23.912;2023-02-04T12:48:48;95899.78;;;9.76;78.87
6615;BME280;3343;42.896;23.912;2023-02-04T12:51:16;95888.69;;;9.87;79.39
6615;BME280;3343;42.896;23.912;2023-02-04T12:53:45;95891.91;;;9.76;79.61
6615;BME280;3343;42.896;23.912;2023-02-04T12:56:13;95898.81;;;9.90;80.10
6615;BME280;3343;42.896;23.912;2023-02-04T12:58:39;95887.81;;;9.67;81.12
6615;BME280;3343;42.896;23.912;2023-02-04T13:01:06;95903.97;;;9.64;82.61
6615;BME280;3343;42.896;23.912;2023-02-04T13:03:33;95896.69;;;9.59;83.76
6615;BME280;3343;42.896;23.912;2023-02-04T13:06:00;95905.63;;;9.71;83.25
6615;BME280;3343;42.896;23.912;2023-02-04T13:08:29;95902.63;;;9.81;83.35
6615;BME280;3343;42.896;23.912;2023-02-04T13:10:55;95904.78;;;9.64;83.64
6615;BME280;3343;42.896;23.912;2023-02-04T13:13:22;95911.06;;;9.70;83.54
6615;BME280;3343;42.896;23.912;2023-02-04T13:15:49;95909.97;;;9.51;84.75
6615;BME280;3343;42.896;23.912;2023-02-04T13:18:16;95914.09;;;9.67;84.08
6615;BME280;3343;42.896;23.912;2023-02-04T13:20:44;95917.16;;;9.70;83.69